createdAt,value
2019-02-16T00:01:15.895Z,99.90
2019-02-16T00:03:42.301Z,99.90
2019-02-16T00:06:08.885Z,99.90
2019-02-16T00:08:35.427Z,99.90
2019-02-16T00:11:01.947Z,99.90
2019-02-16T00:13:28.849Z,99.90
2019-02-16T00:15:55.372Z,99.90
2019-02-16T00:18:23.088Z,99.90
2019-02-16T00:20:49.666Z,99.90
2019-02-16T00:23:16.214Z,99.90
2019-02-16T00:25:43.111Z,99.90
2019-02-16T00:28:09.815Z,99.90
2019-02-16T00:30:36.342Z,99.90
2019-02-16T00:33:02.887Z,99.90
2019-02-16T00:35:29.392Z,99.90
2019-02-16T00:37:56.468Z,99.90
2019-02-16T00:40:23.926Z,99.90
2019-02-16T00:42:50.812Z,99.90
2019-02-16T00:45:17.427Z,99.90
2019-02-16T00:47:43.947Z,99.90
2019-02-16T00:50:10.491Z,99.90
2019-02-16T00:52:37.045Z,99.90
2019-02-16T00:55:04.255Z,99.90
2019-02-16T00:57:30.801Z,99.90
2019-02-16T00:59:57.362Z,99.90
2019-02-16T01:02:25.557Z,99.90
2019-02-16T01:04:52.079Z,99.90
2019-02-16T01:07:18.600Z,99.90
2019-02-16T01:09:46.239Z,99.90
2019-02-16T01:12:12.736Z,99.90
2019-02-16T01:14:39.918Z,99.90
2019-02-16T01:17:06.582Z,99.90
2019-02-16T01:19:33.129Z,99.90
2019-02-16T01:21:59.688Z,99.90
2019-02-16T01:24:26.271Z,99.90
2019-02-16T01:26:52.783Z,99.90
2019-02-16T01:29:19.603Z,99.90
2019-02-16T01:31:46.091Z,99.90
2019-02-16T01:36:39.954Z,99.90
2019-02-16T01:39:06.578Z,99.90
2019-02-16T01:41:33.083Z,99.90
2019-02-16T01:43:59.718Z,99.90
2019-02-16T01:46:26.357Z,99.90
2019-02-16T01:51:20.020Z,99.90
2019-02-16T01:56:13.542Z,99.90
2019-02-16T01:58:40.077Z,99.90
2019-02-16T02:01:06.770Z,99.90
2019-02-16T02:03:33.407Z,99.90
2019-02-16T02:06:00.044Z,99.90
2019-02-16T02:08:26.591Z,99.90
2019-02-16T02:13:20.325Z,99.90
2019-02-16T02:15:47.211Z,99.90
2019-02-16T02:18:13.834Z,99.90
2019-02-16T02:20:40.735Z,99.90
2019-02-16T02:25:34.339Z,99.90
2019-02-16T02:28:00.851Z,99.90
2019-02-16T02:30:27.953Z,99.90
2019-02-16T02:32:54.487Z,99.90
2019-02-16T02:35:21.002Z,99.90
2019-02-16T02:40:14.385Z,99.90
2019-02-16T02:47:34.423Z,99.90
2019-02-16T02:50:01.168Z,99.90
2019-02-16T02:52:27.644Z,99.90
2019-02-16T02:57:20.820Z,99.90
2019-02-16T02:59:47.369Z,99.90
2019-02-16T03:02:13.906Z,99.90
2019-02-16T03:07:07.192Z,99.90
2019-02-16T03:09:33.684Z,99.90
2019-02-16T03:12:00.307Z,99.90
2019-02-16T03:14:26.998Z,99.90
2019-02-16T03:19:20.324Z,99.90
2019-02-16T03:21:46.836Z,99.90
2019-02-16T03:24:13.389Z,99.90
2019-02-16T03:29:11.432Z,99.90
2019-02-16T03:31:52.072Z,99.90
2019-02-16T03:34:26.427Z,99.90
2019-02-16T03:37:11.112Z,99.90
2019-02-16T03:39:38.412Z,99.90
2019-02-16T03:42:04.802Z,99.90
2019-02-16T03:44:31.347Z,99.90
2019-02-16T03:46:57.925Z,99.90
2019-02-16T03:49:24.378Z,99.90
2019-02-16T03:54:17.532Z,99.90
2019-02-16T03:56:44.066Z,99.90
2019-02-16T03:59:10.588Z,99.90
2019-02-16T04:01:37.119Z,99.90
2019-02-16T04:04:03.692Z,99.90
2019-02-16T04:08:57.900Z,99.90
2019-02-16T04:11:24.897Z,99.90
2019-02-16T04:16:18.227Z,99.90
2019-02-16T04:18:44.793Z,99.90
2019-02-16T04:21:11.316Z,99.90
2019-02-16T04:26:08.272Z,99.90
2019-02-16T04:31:01.524Z,99.90
2019-02-16T04:33:28.063Z,99.90
2019-02-16T04:35:54.578Z,99.90
2019-02-16T04:38:21.161Z,99.90
2019-02-16T04:40:47.661Z,99.90
2019-02-16T04:43:14.164Z,99.90
2019-02-16T04:51:47.433Z,99.90
2019-02-16T04:54:13.943Z,99.90
2019-02-16T04:56:40.441Z,99.90
2019-02-16T04:59:06.967Z,99.90
2019-02-16T05:01:33.543Z,99.90
2019-02-16T05:06:26.853Z,99.90
2019-02-16T05:08:53.364Z,99.90
2019-02-16T05:11:20.089Z,99.90
2019-02-16T05:16:13.625Z,99.90
2019-02-16T05:18:40.166Z,99.90
2019-02-16T05:21:06.658Z,99.90
2019-02-16T05:23:33.243Z,99.90
2019-02-16T05:25:59.733Z,99.90
2019-02-16T05:33:19.695Z,99.90
2019-02-16T05:38:13.170Z,99.90
2019-02-16T05:40:39.675Z,99.90
2019-02-16T05:43:06.267Z,99.90
2019-02-16T05:45:32.775Z,99.90
2019-02-16T05:50:26.132Z,99.90
2019-02-16T05:52:54.609Z,99.90
2019-02-16T05:55:20.976Z,99.90
2019-02-16T05:57:47.558Z,99.90
2019-02-16T06:00:14.780Z,99.90
2019-02-16T06:02:41.156Z,99.90
2019-02-16T06:05:07.691Z,99.90
2019-02-16T06:07:34.175Z,99.90
2019-02-16T06:10:00.691Z,99.90
2019-02-16T06:12:28.907Z,99.90
2019-02-16T06:14:55.493Z,99.90
2019-02-16T06:17:22.096Z,99.90
2019-02-16T06:22:15.607Z,99.90
2019-02-16T06:24:42.158Z,99.90
2019-02-16T06:27:08.680Z,99.90
2019-02-16T06:29:35.238Z,99.90
2019-02-16T06:34:28.661Z,99.90
2019-02-16T06:36:55.318Z,99.90
2019-02-16T06:39:22.048Z,99.90
2019-02-16T06:46:42.228Z,99.90
2019-02-16T06:49:08.734Z,99.90
2019-02-16T06:51:35.359Z,99.90
2019-02-16T06:54:01.884Z,99.90
2019-02-16T06:56:30.237Z,99.90
2019-02-16T06:58:56.890Z,99.90
2019-02-16T07:01:23.411Z,99.90
2019-02-16T07:06:16.801Z,99.90
2019-02-16T07:08:44.209Z,99.90
2019-02-16T07:11:10.943Z,99.90
2019-02-16T07:16:19.044Z,99.90
2019-02-16T07:18:49.981Z,99.90
2019-02-16T07:23:43.206Z,99.90
2019-02-16T07:26:09.799Z,99.90
2019-02-16T07:28:36.316Z,99.90
2019-02-16T07:31:02.914Z,99.90
2019-02-16T07:33:29.521Z,99.90
2019-02-16T07:35:56.063Z,99.90
2019-02-16T07:43:35.968Z,99.90
2019-02-16T07:46:06.802Z,99.90
2019-02-16T07:51:09.603Z,99.90
2019-02-16T07:53:54.581Z,99.90
2019-02-16T07:56:25.571Z,99.90
2019-02-16T07:59:02.731Z,99.90
2019-02-16T08:01:39.770Z,99.90
2019-02-16T08:04:08.091Z,99.90
2019-02-16T08:06:45.112Z,99.90
2019-02-16T08:14:31.447Z,99.90
2019-02-16T08:22:12.039Z,99.90
2019-02-16T08:27:20.598Z,99.90
2019-02-16T08:32:23.350Z,99.90
2019-02-16T08:37:37.866Z,99.90
2019-02-16T08:42:37.614Z,99.90
2019-02-16T08:52:44.677Z,99.90
2019-02-16T08:57:44.678Z,99.90
2019-02-16T09:00:21.614Z,99.90
2019-02-16T09:02:52.506Z,99.90
2019-02-16T09:07:55.290Z,99.90
2019-02-16T09:10:29.204Z,99.90
2019-02-16T09:15:35.181Z,99.90
2019-02-16T09:23:18.995Z,99.90
2019-02-16T09:25:50.152Z,99.90
2019-02-16T09:28:33.472Z,99.90
2019-02-16T09:33:39.307Z,99.90
2019-02-16T09:38:39.699Z,99.90
2019-02-16T09:44:01.459Z,99.90
2019-02-16T09:46:29.935Z,99.90
2019-02-16T09:49:11.023Z,99.90
2019-02-16T09:51:42.414Z,99.90
2019-02-16T09:54:27.197Z,99.90
2019-02-16T09:59:30.386Z,99.90
2019-02-16T10:02:04.574Z,99.90
2019-02-16T10:04:45.057Z,99.90
2019-02-16T10:09:55.229Z,99.90
2019-02-16T10:12:35.803Z,99.90
2019-02-16T10:17:47.656Z,99.90
2019-02-16T10:20:22.114Z,99.90
2019-02-16T10:23:08.621Z,99.90
2019-02-16T10:25:37.148Z,99.90
2019-02-16T10:28:20.398Z,99.90
2019-02-16T10:33:26.496Z,99.90
2019-02-16T10:41:10.709Z,99.90
2019-02-16T10:43:54.068Z,99.90
2019-02-16T10:46:28.594Z,99.90
2019-02-16T10:51:28.556Z,99.90
2019-02-16T10:53:57.601Z,99.90
2019-02-16T10:59:06.750Z,99.90
2019-02-16T11:01:35.096Z,99.90
2019-02-16T11:04:20.221Z,99.90
2019-02-16T11:06:48.569Z,99.90
2019-02-16T11:09:23.106Z,99.90
2019-02-16T11:12:08.090Z,99.90
2019-02-16T11:17:31.087Z,99.90
2019-02-16T11:32:55.512Z,99.90
2019-02-16T11:37:58.237Z,99.90
2019-02-16T11:43:04.481Z,99.90
2019-02-16T11:45:50.999Z,99.90
2019-02-16T11:48:35.966Z,99.90
2019-02-16T11:53:48.016Z,99.90
2019-02-16T11:56:16.441Z,99.90
2019-02-16T11:58:44.776Z,98.70
2019-02-16T12:04:07.292Z,99.30
2019-02-16T12:09:21.675Z,99.90
2019-02-16T12:11:58.831Z,99.90
2019-02-16T12:17:05.252Z,98.10
2019-02-16T12:19:33.847Z,97.00
2019-02-16T12:27:02.633Z,96.80
2019-02-16T12:32:15.839Z,95.40
2019-02-16T12:34:44.163Z,94.90
2019-02-16T12:55:30.200Z,92.70
2019-02-16T12:58:01.052Z,94.70
2019-02-16T13:03:01.567Z,94.60
2019-02-16T13:13:32.216Z,96.90
2019-02-16T13:18:52.976Z,96.20
2019-02-16T13:21:21.458Z,96.80
2019-02-16T13:29:05.072Z,95.30
2019-02-16T13:34:17.683Z,93.80
2019-02-16T13:36:55.121Z,95.70
2019-02-16T13:39:25.974Z,94.40
2019-02-16T13:44:31.653Z,98.30
2019-02-16T13:52:16.202Z,98.90
2019-02-16T13:57:31.333Z,98.60
2019-02-16T14:05:27.339Z,97.60
2019-02-16T14:07:56.316Z,98.20
2019-02-16T14:10:40.774Z,97.00
2019-02-16T14:15:37.725Z,95.40
2019-02-16T14:20:31.091Z,98.60
2019-02-16T14:22:57.683Z,98.50
2019-02-16T14:25:26.021Z,99.90
2019-02-16T14:27:52.550Z,99.90
2019-02-16T14:30:19.126Z,99.90
2019-02-16T14:32:45.725Z,98.20
2019-02-16T14:47:36.106Z,99.90
2019-02-16T14:54:56.299Z,99.90
2019-02-16T14:59:49.616Z,98.30
2019-02-16T15:09:36.609Z,99.90
2019-02-16T15:14:29.774Z,99.90
2019-02-16T15:16:56.352Z,99.90
2019-02-16T15:19:23.001Z,99.90
2019-02-16T15:24:19.681Z,99.90
2019-02-16T15:26:46.276Z,99.90
2019-02-16T15:31:40.191Z,99.90
2019-02-16T15:34:06.994Z,99.90
2019-02-16T15:36:33.680Z,99.90
2019-02-16T15:39:00.278Z,99.90
2019-02-16T15:41:26.830Z,99.90
2019-02-16T15:46:21.021Z,99.90
2019-02-16T16:03:31.662Z,99.90
2019-02-16T16:11:04.015Z,99.90
2019-02-16T16:13:50.361Z,99.90
2019-02-16T16:24:04.877Z,99.90
2019-02-16T16:26:33.315Z,99.90
2019-02-16T16:29:21.437Z,99.90
2019-02-16T16:32:04.067Z,99.90
2019-02-16T16:39:47.621Z,99.90
2019-02-16T16:52:38.434Z,99.90
2019-02-16T16:55:12.715Z,99.90
2019-02-16T16:57:43.845Z,99.90
2019-02-16T17:02:52.915Z,99.90
2019-02-16T17:05:21.305Z,99.90
2019-02-16T17:07:49.620Z,99.90
2019-02-16T17:10:26.497Z,99.90
2019-02-16T17:13:03.450Z,99.90
2019-02-16T17:15:34.817Z,99.90
2019-02-16T17:20:49.533Z,99.90
2019-02-16T17:23:20.383Z,99.90
2019-02-16T17:36:38.036Z,99.90
2019-02-16T17:39:06.451Z,99.90
2019-02-16T17:44:12.385Z,99.90
2019-02-16T17:46:57.590Z,99.90
2019-02-16T17:49:26.071Z,99.90
2019-02-16T17:51:54.594Z,99.90
2019-02-16T17:54:22.910Z,99.90
2019-02-16T17:57:07.561Z,99.90
2019-02-16T18:02:13.144Z,99.90
2019-02-16T18:04:44.070Z,99.90
2019-02-16T18:07:12.968Z,99.90
2019-02-16T18:09:41.331Z,99.90
2019-02-16T18:12:09.650Z,99.90
2019-02-16T18:19:59.770Z,99.90
2019-02-16T18:25:15.129Z,99.90
2019-02-16T18:27:52.084Z,99.90
2019-02-16T18:33:21.951Z,99.90
2019-02-16T18:35:50.545Z,99.90
2019-02-16T18:40:50.548Z,99.90
2019-02-16T18:43:19.075Z,99.90
2019-02-16T18:48:37.219Z,99.90
2019-02-16T18:51:11.361Z,99.90
2019-02-16T18:59:16.216Z,99.90
2019-02-16T19:01:50.701Z,99.90
2019-02-16T19:04:18.993Z,99.90
2019-02-16T19:06:47.319Z,99.90
2019-02-16T19:09:22.369Z,99.90
2019-02-16T19:17:11.829Z,99.90
2019-02-16T19:22:12.337Z,99.90
2019-02-16T19:24:43.227Z,99.90
2019-02-16T19:29:56.883Z,99.90
2019-02-16T19:32:37.110Z,99.90
2019-02-16T19:35:11.485Z,99.90
2019-02-16T19:37:56.530Z,99.90
2019-02-16T19:42:53.342Z,99.90
2019-02-16T19:45:24.230Z,99.90
2019-02-16T19:48:09.456Z,99.90
2019-02-16T19:50:37.888Z,99.90
2019-02-16T19:53:12.286Z,99.90
2019-02-16T19:58:20.506Z,99.90
2019-02-16T20:00:57.624Z,99.90
2019-02-16T20:11:27.959Z,99.90
2019-02-16T20:14:12.723Z,99.90
2019-02-16T20:16:41.108Z,99.90
2019-02-16T20:21:52.914Z,99.90
2019-02-16T20:24:21.182Z,99.90
2019-02-16T20:26:49.530Z,99.90
2019-02-16T20:29:29.494Z,99.90
2019-02-16T20:32:15.640Z,99.90
2019-02-16T20:37:18.368Z,99.90
2019-02-16T20:39:49.485Z,99.90
2019-02-16T20:42:29.667Z,99.90
2019-02-16T20:45:13.351Z,99.90
2019-02-16T20:47:45.537Z,99.90
2019-02-16T20:50:16.831Z,99.90
2019-02-16T20:55:34.430Z,99.90
2019-02-16T21:06:05.507Z,99.90
2019-02-16T21:08:33.796Z,99.90
2019-02-16T21:11:11.037Z,99.90
2019-02-16T21:13:47.048Z,99.90
2019-02-16T21:16:23.840Z,99.90
2019-02-16T21:18:57.192Z,99.90
2019-02-16T21:21:29.707Z,99.90
2019-02-16T21:24:03.615Z,99.90
2019-02-16T21:31:53.993Z,99.90
2019-02-16T21:34:23.203Z,99.90
2019-02-16T21:36:52.018Z,99.90
2019-02-16T21:39:23.430Z,99.90
2019-02-16T21:41:52.492Z,99.90
2019-02-16T21:46:49.573Z,99.90
2019-02-16T21:49:34.003Z,99.90
2019-02-16T21:54:59.606Z,99.90
2019-02-16T22:00:29.605Z,99.90
2019-02-16T22:03:14.137Z,99.90
2019-02-16T22:05:42.546Z,99.90
2019-02-16T22:08:25.834Z,99.90
2019-02-16T22:10:57.009Z,99.90
2019-02-16T22:13:32.402Z,99.90
2019-02-16T22:15:59.842Z,99.90
2019-02-16T22:18:26.349Z,99.90
2019-02-16T22:20:52.843Z,99.90
2019-02-16T22:23:19.430Z,99.90
2019-02-16T22:25:45.914Z,99.90
2019-02-16T22:28:18.607Z,99.90
2019-02-16T22:30:40.749Z,99.90
2019-02-16T22:33:07.291Z,99.90
2019-02-16T22:35:33.920Z,99.90
2019-02-16T22:42:53.995Z,99.90
2019-02-16T22:45:20.582Z,99.90
2019-02-16T22:47:47.103Z,99.90
2019-02-16T22:50:13.673Z,99.90
2019-02-16T22:52:40.180Z,99.90
2019-02-16T22:55:07.694Z,99.90
2019-02-16T23:00:01.218Z,99.90
2019-02-16T23:02:27.627Z,99.90
2019-02-16T23:04:54.276Z,99.90
2019-02-16T23:09:47.550Z,99.90
2019-02-16T23:12:14.073Z,99.90
2019-02-16T23:14:40.656Z,99.90
2019-02-16T23:19:35.322Z,99.90
2019-02-16T23:22:01.855Z,99.90
2019-02-16T23:24:28.380Z,99.90
2019-02-16T23:29:21.797Z,99.90
2019-02-16T23:31:48.297Z,99.90
2019-02-16T23:34:15.615Z,99.90
2019-02-16T23:39:09.367Z,99.90
2019-02-16T23:41:35.923Z,99.90
2019-02-16T23:44:02.446Z,99.90
2019-02-16T23:46:28.972Z,99.90
2019-02-16T23:48:55.558Z,99.90
2019-02-16T23:53:48.810Z,99.90
2019-02-16T23:56:15.256Z,99.90
2019-02-16T23:58:49.035Z,99.90
